sensor_id;sensor_type;location;lat;lon;timestamp;pressure;altitude;pressure_sealevel;temperature
62611;BMP280;48683;48.084;17.272;2023-02-28T00:01:31;101437.53;;;0.07
62611;BMP280;48683;48.084;17.272;2023-02-28T00:03:56;101439.59;;;0.10
62611;BMP280;48683;48.084;17.272;2023-02-28T00:06:22;101441.53;;;0.04
62611;BMP280;48683;48.084;17.272;2023-02-28T00:08:49;101438.81;;;0.09
62611;BMP280;48683;48.084;17.272;2023-02-28T00:11:15;101452.25;;;0.13
62611;BMP280;48683;48.084;17.272;2023-02-28T00:13:42;101451.13;;;0.19
62611;BMP280;48683;48.084;17.272;2023-02-28T00:16:11;101451.75;;;0.11
62611;BMP280;48683;48.084;17.272;2023-02-28T00:18:38;101443.03;;;0.10
62611;BMP280;48683;48.084;17.272;2023-02-28T00:21:04;101458.03;;;0.15
62611;BMP280;48683;48.084;17.272;2023-02-28T00:23:30;101459.59;;;0.16
62611;BMP280;48683;48.084;17.272;2023-02-28T00:25:56;101457.81;;;0.11
62611;BMP280;48683;48.084;17.272;2023-02-28T00:28:21;101469.03;;;0.22
62611;BMP280;48683;48.084;17.272;2023-02-28T00:30:47;101475.91;;;0.23
62611;BMP280;48683;48.084;17.272;2023-02-28T00:33:12;101470.59;;;0.23
62611;BMP280;48683;48.084;17.272;2023-02-28T00:35:38;101468.09;;;0.31
62611;BMP280;48683;48.084;17.272;2023-02-28T00:38:03;101466.59;;;0.25
62611;BMP280;48683;48.084;17.272;2023-02-28T00:40:29;101467.88;;;0.28
62611;BMP280;48683;48.084;17.272;2023-02-28T00:42:54;101477.97;;;0.26
62611;BMP280;48683;48.084;17.272;2023-02-28T00:45:20;101480.03;;;0.29
62611;BMP280;48683;48.084;17.272;2023-02-28T00:47:45;101480.59;;;0.26
62611;BMP280;48683;48.084;17.272;2023-02-28T00:50:16;101482.81;;;0.19
62611;BMP280;48683;48.084;17.272;2023-02-28T00:52:42;101482.50;;;0.20
62611;BMP280;48683;48.084;17.272;2023-02-28T00:55:07;101481.44;;;0.21
62611;BMP280;48683;48.084;17.272;2023-02-28T00:57:32;101488.72;;;0.11
62611;BMP280;48683;48.084;17.272;2023-02-28T00:59:58;101488.63;;;0.16
62611;BMP280;48683;48.084;17.272;2023-02-28T01:02:23;101483.72;;;0.09
62611;BMP280;48683;48.084;17.272;2023-02-28T01:04:49;101484.28;;;0.06
62611;BMP280;48683;48.084;17.272;2023-02-28T01:07:14;101490.41;;;0.02
62611;BMP280;48683;48.084;17.272;2023-02-28T01:09:40;101497.44;;;0.11
62611;BMP280;48683;48.084;17.272;2023-02-28T01:12:07;101489.34;;;0.03
62611;BMP280;48683;48.084;17.272;2023-02-28T01:14:33;101489.63;;;0.01
62611;BMP280;48683;48.084;17.272;2023-02-28T01:16:59;101495.22;;;-0.01
62611;BMP280;48683;48.084;17.272;2023-02-28T01:19:24;101490.25;;;-0.07
62611;BMP280;48683;48.084;17.272;2023-02-28T01:21:50;101487.63;;;-0.07
62611;BMP280;48683;48.084;17.272;2023-02-28T01:24:15;101503.34;;;0.03
62611;BMP280;48683;48.084;17.272;2023-02-28T01:26:41;101497.91;;;-0.06
62611;BMP280;48683;48.084;17.272;2023-02-28T01:29:06;101498.34;;;0.02
62611;BMP280;48683;48.084;17.272;2023-02-28T01:31:32;101498.38;;;-0.04
62611;BMP280;48683;48.084;17.272;2023-02-28T01:33:57;101503.34;;;0.03
62611;BMP280;48683;48.084;17.272;2023-02-28T01:36:24;101501.56;;;-0.02
62611;BMP280;48683;48.084;17.272;2023-02-28T01:38:49;101504.69;;;0.00
62611;BMP280;48683;48.084;17.272;2023-02-28T01:41:22;101513.91;;;0.03
62611;BMP280;48683;48.084;17.272;2023-02-28T01:46:14;101510.44;;;0.08
62611;BMP280;48683;48.084;17.272;2023-02-28T01:48:49;101509.84;;;0.11
62611;BMP280;48683;48.084;17.272;2023-02-28T01:51:29;101512.97;;;0.13
62611;BMP280;48683;48.084;17.272;2023-02-28T01:53:59;101505.41;;;0.06
62611;BMP280;48683;48.084;17.272;2023-02-28T01:56:31;101507.06;;;0.02
62611;BMP280;48683;48.084;17.272;2023-02-28T01:58:58;101510.75;;;0.01
62611;BMP280;48683;48.084;17.272;2023-02-28T02:01:25;101509.69;;;0.02
62611;BMP280;48683;48.084;17.272;2023-02-28T02:03:55;101513.97;;;-0.02
62611;BMP280;48683;48.084;17.272;2023-02-28T02:06:26;101507.22;;;-0.13
62611;BMP280;48683;48.084;17.272;2023-02-28T02:08:52;101507.19;;;-0.08
62611;BMP280;48683;48.084;17.272;2023-02-28T02:11:20;101514.59;;;-0.10
62611;BMP280;48683;48.084;17.272;2023-02-28T02:14:13;101511.78;;;-0.19
62611;BMP280;48683;48.084;17.272;2023-02-28T02:17:14;101511.50;;;-0.17
62611;BMP280;48683;48.084;17.272;2023-02-28T02:27:45;101515.59;;;-0.30
62611;BMP280;48683;48.084;17.272;2023-02-28T02:35:55;101517.53;;;-0.35
62611;BMP280;48683;48.084;17.272;2023-02-28T02:38:46;101506.03;;;-0.50
62611;BMP280;48683;48.084;17.272;2023-02-28T02:41:23;101514.78;;;-0.54
62611;BMP280;48683;48.084;17.272;2023-02-28T02:46:22;101516.88;;;-0.80
62611;BMP280;48683;48.084;17.272;2023-02-28T02:48:50;101510.56;;;-0.79
62611;BMP280;48683;48.084;17.272;2023-02-28T02:51:20;101519.78;;;-0.81
62611;BMP280;48683;48.084;17.272;2023-02-28T02:53:50;101513.47;;;-0.85
62611;BMP280;48683;48.084;17.272;2023-02-28T02:56:20;101522.03;;;-0.93
62611;BMP280;48683;48.084;17.272;2023-02-28T02:58:48;101526.50;;;-0.94
62611;BMP280;48683;48.084;17.272;2023-02-28T03:01:25;101530.44;;;-0.91
62611;BMP280;48683;48.084;17.272;2023-02-28T03:03:56;101525.66;;;-0.89
62611;BMP280;48683;48.084;17.272;2023-02-28T03:06:22;101530.16;;;-0.90
62611;BMP280;48683;48.084;17.272;2023-02-28T03:08:47;101520.91;;;-0.87
62611;BMP280;48683;48.084;17.272;2023-02-28T03:11:14;101534.28;;;-0.79
62611;BMP280;48683;48.084;17.272;2023-02-28T03:13:53;101529.97;;;-0.70
62611;BMP280;48683;48.084;17.272;2023-02-28T03:16:27;101522.63;;;-0.73
62611;BMP280;48683;48.084;17.272;2023-02-28T03:21:33;101530.03;;;-0.75
62611;BMP280;48683;48.084;17.272;2023-02-28T03:24:31;101527.38;;;-0.75
62611;BMP280;48683;48.084;17.272;2023-02-28T03:27:10;101536.50;;;-0.62
62611;BMP280;48683;48.084;17.272;2023-02-28T03:29:41;101537.84;;;-0.65
62611;BMP280;48683;48.084;17.272;2023-02-28T03:32:19;101525.81;;;-0.76
62611;BMP280;48683;48.084;17.272;2023-02-28T03:34:56;101528.44;;;-0.76
62611;BMP280;48683;48.084;17.272;2023-02-28T03:37:25;101523.78;;;-0.84
62611;BMP280;48683;48.084;17.272;2023-02-28T03:40:01;101542.47;;;-0.80
62611;BMP280;48683;48.084;17.272;2023-02-28T03:42:31;101536.59;;;-0.72
62611;BMP280;48683;48.084;17.272;2023-02-28T03:45:20;101546.16;;;-0.81
62611;BMP280;48683;48.084;17.272;2023-02-28T03:48:01;101526.84;;;-1.06
62611;BMP280;48683;48.084;17.272;2023-02-28T03:50:34;101524.84;;;-1.24
62611;BMP280;48683;48.084;17.272;2023-02-28T03:53:25;101528.63;;;-1.35
62611;BMP280;48683;48.084;17.272;2023-02-28T03:55:53;101526.34;;;-1.52
62611;BMP280;48683;48.084;17.272;2023-02-28T03:58:29;101534.78;;;-1.55
62611;BMP280;48683;48.084;17.272;2023-02-28T04:01:05;101536.31;;;-1.44
62611;BMP280;48683;48.084;17.272;2023-02-28T04:03:37;101529.75;;;-1.46
62611;BMP280;48683;48.084;17.272;2023-02-28T04:06:04;101531.34;;;-1.50
62611;BMP280;48683;48.084;17.272;2023-02-28T04:08:30;101534.00;;;-1.55
62611;BMP280;48683;48.084;17.272;2023-02-28T04:11:01;101541.66;;;-1.54
62611;BMP280;48683;48.084;17.272;2023-02-28T04:13:29;101547.09;;;-1.40
62611;BMP280;48683;48.084;17.272;2023-02-28T04:15:54;101552.41;;;-1.45
62611;BMP280;48683;48.084;17.272;2023-02-28T04:18:20;101549.78;;;-1.50
62611;BMP280;48683;48.084;17.272;2023-02-28T04:20:45;101556.63;;;-1.44
62611;BMP280;48683;48.084;17.272;2023-02-28T04:23:10;101563.44;;;-1.43
62611;BMP280;48683;48.084;17.272;2023-02-28T04:25:36;101551.63;;;-1.46
62611;BMP280;48683;48.084;17.272;2023-02-28T04:28:01;101558.47;;;-1.45
62611;BMP280;48683;48.084;17.272;2023-02-28T04:30:26;101559.53;;;-1.51
62611;BMP280;48683;48.084;17.272;2023-02-28T04:32:52;101554.59;;;-1.62
62611;BMP280;48683;48.084;17.272;2023-02-28T04:35:17;101557.25;;;-1.67
62611;BMP280;48683;48.084;17.272;2023-02-28T04:37:42;101555.94;;;-1.65
62611;BMP280;48683;48.084;17.272;2023-02-28T04:40:08;101562.78;;;-1.64
62611;BMP280;48683;48.084;17.272;2023-02-28T04:42:34;101557.28;;;-1.77
62611;BMP280;48683;48.084;17.272;2023-02-28T04:45:04;101562.50;;;-1.67
62611;BMP280;48683;48.084;17.272;2023-02-28T04:47:30;101569.91;;;-1.64
62611;BMP280;48683;48.084;17.272;2023-02-28T04:49:55;101574.59;;;-1.61
62611;BMP280;48683;48.084;17.272;2023-02-28T04:52:21;101575.13;;;-1.59
62611;BMP280;48683;48.084;17.272;2023-02-28T04:54:46;101574.53;;;-1.46
62611;BMP280;48683;48.084;17.272;2023-02-28T04:57:11;101571.41;;;-1.53
62611;BMP280;48683;48.084;17.272;2023-02-28T04:59:37;101567.19;;;-1.49
62611;BMP280;48683;48.084;17.272;2023-02-28T05:02:02;101575.84;;;-1.44
62611;BMP280;48683;48.084;17.272;2023-02-28T05:04:34;101568.75;;;-1.48
62611;BMP280;48683;48.084;17.272;2023-02-28T05:07:00;101581.63;;;-1.41
62611;BMP280;48683;48.084;17.272;2023-02-28T05:09:26;101572.94;;;-1.42
62611;BMP280;48683;48.084;17.272;2023-02-28T05:11:53;101569.50;;;-1.42
62611;BMP280;48683;48.084;17.272;2023-02-28T05:14:18;101582.34;;;-1.31
62611;BMP280;48683;48.084;17.272;2023-02-28T05:16:43;101573.41;;;-1.30
62611;BMP280;48683;48.084;17.272;2023-02-28T05:19:09;101582.03;;;-1.24
62611;BMP280;48683;48.084;17.272;2023-02-28T05:21:39;101587.06;;;-1.23
62611;BMP280;48683;48.084;17.272;2023-02-28T05:24:11;101577.63;;;-1.29
62611;BMP280;48683;48.084;17.272;2023-02-28T05:26:40;101584.72;;;-1.29
62611;BMP280;48683;48.084;17.272;2023-02-28T05:29:06;101579.75;;;-1.36
62611;BMP280;48683;48.084;17.272;2023-02-28T05:31:32;101586.84;;;-1.31
62611;BMP280;48683;48.084;17.272;2023-02-28T05:33:57;101588.19;;;-1.39
62611;BMP280;48683;48.084;17.272;2023-02-28T05:36:23;101595.06;;;-1.38
62611;BMP280;48683;48.084;17.272;2023-02-28T05:38:49;101591.13;;;-1.46
62611;BMP280;48683;48.084;17.272;2023-02-28T05:41:16;101610.31;;;-1.40
62611;BMP280;48683;48.084;17.272;2023-02-28T05:43:41;101590.91;;;-1.49
62611;BMP280;48683;48.084;17.272;2023-02-28T05:46:09;101602.19;;;-1.44
62611;BMP280;48683;48.084;17.272;2023-02-28T05:48:35;101607.44;;;-1.38
62611;BMP280;48683;48.084;17.272;2023-02-28T05:51:02;101612.94;;;-1.35
62611;BMP280;48683;48.084;17.272;2023-02-28T05:53:28;101617.41;;;-1.30
62611;BMP280;48683;48.084;17.272;2023-02-28T05:55:53;101613.47;;;-1.33
62611;BMP280;48683;48.084;17.272;2023-02-28T05:58:19;101610.84;;;-1.33
62611;BMP280;48683;48.084;17.272;2023-02-28T06:00:44;101611.13;;;-1.39
62611;BMP280;48683;48.084;17.272;2023-02-28T06:03:10;101623.78;;;-1.36
62611;BMP280;48683;48.084;17.272;2023-02-28T06:05:36;101627.47;;;-1.37
62611;BMP280;48683;48.084;17.272;2023-02-28T06:08:01;101623.47;;;-1.35
62611;BMP280;48683;48.084;17.272;2023-02-28T06:10:26;101630.81;;;-1.27
62611;BMP280;48683;48.084;17.272;2023-02-28T06:12:52;101635.03;;;-1.21
62611;BMP280;48683;48.084;17.272;2023-02-28T06:15:17;101625.53;;;-1.22
62611;BMP280;48683;48.084;17.272;2023-02-28T06:17:43;101627.63;;;-1.19
62611;BMP280;48683;48.084;17.272;2023-02-28T06:20:10;101637.84;;;-1.07
62611;BMP280;48683;48.084;17.272;2023-02-28T06:22:38;101633.59;;;-1.03
62611;BMP280;48683;48.084;17.272;2023-02-28T06:25:05;101639.34;;;-0.96
62611;BMP280;48683;48.084;17.272;2023-02-28T06:27:31;101641.19;;;-0.91
62611;BMP280;48683;48.084;17.272;2023-02-28T06:29:57;101647.72;;;-0.84
62611;BMP280;48683;48.084;17.272;2023-02-28T06:32:22;101647.97;;;-0.80
62611;BMP280;48683;48.084;17.272;2023-02-28T06:34:48;101632.22;;;-0.90
62611;BMP280;48683;48.084;17.272;2023-02-28T06:37:14;101643.00;;;-0.87
62611;BMP280;48683;48.084;17.272;2023-02-28T06:39:39;101640.69;;;-0.93
62611;BMP280;48683;48.084;17.272;2023-02-28T06:42:05;101648.53;;;-0.88
62611;BMP280;48683;48.084;17.272;2023-02-28T06:44:30;101635.06;;;-0.82
62611;BMP280;48683;48.084;17.272;2023-02-28T06:47:01;101642.41;;;-0.79
62611;BMP280;48683;48.084;17.272;2023-02-28T06:49:28;101641.31;;;-0.73
62611;BMP280;48683;48.084;17.272;2023-02-28T06:51:54;101640.00;;;-0.70
62611;BMP280;48683;48.084;17.272;2023-02-28T06:54:19;101650.47;;;-0.65
62611;BMP280;48683;48.084;17.272;2023-02-28T06:56:45;101654.63;;;-0.54
62611;BMP280;48683;48.084;17.272;2023-02-28T06:59:10;101644.81;;;-0.49
62611;BMP280;48683;48.084;17.272;2023-02-28T07:01:35;101653.44;;;-0.38
62611;BMP280;48683;48.084;17.272;2023-02-28T07:04:01;101655.47;;;-0.30
62611;BMP280;48683;48.084;17.272;2023-02-28T07:06:27;101657.34;;;-0.30
62611;BMP280;48683;48.084;17.272;2023-02-28T07:08:53;101661.53;;;-0.24
62611;BMP280;48683;48.084;17.272;2023-02-28T07:11:20;101656.19;;;-0.19
62611;BMP280;48683;48.084;17.272;2023-02-28T07:13:48;101656.97;;;-0.19
62611;BMP280;48683;48.084;17.272;2023-02-28T07:16:13;101653.72;;;-0.11
62611;BMP280;48683;48.084;17.272;2023-02-28T07:18:39;101655.78;;;-0.03
62611;BMP280;48683;48.084;17.272;2023-02-28T07:21:07;101641.97;;;0.06
62611;BMP280;48683;48.084;17.272;2023-02-28T07:23:33;101657.06;;;0.24
62611;BMP280;48683;48.084;17.272;2023-02-28T07:25:58;101659.06;;;0.37
62611;BMP280;48683;48.084;17.272;2023-02-28T07:28:24;101648.22;;;0.38
62611;BMP280;48683;48.084;17.272;2023-02-28T07:30:49;101650.25;;;0.46
62611;BMP280;48683;48.084;17.272;2023-02-28T07:33:15;101659.00;;;0.66
62611;BMP280;48683;48.084;17.272;2023-02-28T07:35:40;101657.94;;;0.85
62611;BMP280;48683;48.084;17.272;2023-02-28T07:38:06;101661.72;;;0.98
62611;BMP280;48683;48.084;17.272;2023-02-28T07:40:33;101657.44;;;1.02
62611;BMP280;48683;48.084;17.272;2023-02-28T07:43:02;101663.09;;;1.14
62611;BMP280;48683;48.084;17.272;2023-02-28T07:45:29;101660.59;;;1.23
62611;BMP280;48683;48.084;17.272;2023-02-28T07:47:55;101661.59;;;1.27
62611;BMP280;48683;48.084;17.272;2023-02-28T07:50:21;101663.72;;;1.43
62611;BMP280;48683;48.084;17.272;2023-02-28T07:52:46;101663.97;;;1.61
62611;BMP280;48683;48.084;17.272;2023-02-28T07:55:12;101668.13;;;1.67
62611;BMP280;48683;48.084;17.272;2023-02-28T07:57:38;101666.25;;;1.67
62611;BMP280;48683;48.084;17.272;2023-02-28T08:00:05;101668.22;;;1.75
62611;BMP280;48683;48.084;17.272;2023-02-28T08:02:31;101663.72;;;1.76
62611;BMP280;48683;48.084;17.272;2023-02-28T08:04:56;101668.56;;;1.87
62611;BMP280;48683;48.084;17.272;2023-02-28T08:07:22;101659.16;;;1.95
62611;BMP280;48683;48.084;17.272;2023-02-28T08:09:47;101656.59;;;1.90
62611;BMP280;48683;48.084;17.272;2023-02-28T08:12:13;101659.72;;;1.92
62611;BMP280;48683;48.084;17.272;2023-02-28T08:14:38;101664.59;;;2.17
62611;BMP280;48683;48.084;17.272;2023-02-28T08:17:04;101669.22;;;2.25
62611;BMP280;48683;48.084;17.272;2023-02-28T08:19:30;101663.59;;;2.27
62611;BMP280;48683;48.084;17.272;2023-02-28T08:21:56;101657.44;;;2.31
62611;BMP280;48683;48.084;17.272;2023-02-28T08:24:21;101672.44;;;2.50
62611;BMP280;48683;48.084;17.272;2023-02-28T08:26:47;101671.88;;;2.53
62611;BMP280;48683;48.084;17.272;2023-02-28T08:29:12;101669.41;;;2.56
62611;BMP280;48683;48.084;17.272;2023-02-28T08:31:38;101673.22;;;2.50
62611;BMP280;48683;48.084;17.272;2023-02-28T08:34:07;101668.13;;;2.67
62611;BMP280;48683;48.084;17.272;2023-02-28T08:36:32;101672.91;;;2.65
62611;BMP280;48683;48.084;17.272;2023-02-28T08:38:58;101675.84;;;2.77
62611;BMP280;48683;48.084;17.272;2023-02-28T08:41:24;101681.44;;;3.03
62611;BMP280;48683;48.084;17.272;2023-02-28T08:43:51;101678.13;;;3.20
62611;BMP280;48683;48.084;17.272;2023-02-28T08:46:16;101688.47;;;3.44
62611;BMP280;48683;48.084;17.272;2023-02-28T08:48:42;101676.75;;;3.45
62611;BMP280;48683;48.084;17.272;2023-02-28T08:51:10;101678.19;;;3.51
62611;BMP280;48683;48.084;17.272;2023-02-28T08:53:37;101685.50;;;3.67
62611;BMP280;48683;48.084;17.272;2023-02-28T08:56:06;101682.53;;;3.91
62611;BMP280;48683;48.084;17.272;2023-02-28T08:58:31;101680.09;;;4.03
62611;BMP280;48683;48.084;17.272;2023-02-28T09:00:57;101668.00;;;3.89
62611;BMP280;48683;48.084;17.272;2023-02-28T09:03:23;101668.84;;;4.06
62611;BMP280;48683;48.084;17.272;2023-02-28T09:05:56;101679.16;;;4.39
62611;BMP280;48683;48.084;17.272;2023-02-28T09:08:23;101666.06;;;4.51
62611;BMP280;48683;48.084;17.272;2023-02-28T09:10:48;101671.38;;;4.59
62611;BMP280;48683;48.084;17.272;2023-02-28T09:13:14;101685.38;;;4.82
62611;BMP280;48683;48.084;17.272;2023-02-28T09:15:39;101664.50;;;4.67
62611;BMP280;48683;48.084;17.272;2023-02-28T09:18:05;101672.16;;;4.60
62611;BMP280;48683;48.084;17.272;2023-02-28T09:20:30;101682.56;;;4.87
62611;BMP280;48683;48.084;17.272;2023-02-28T09:22:55;101673.84;;;5.12
62611;BMP280;48683;48.084;17.272;2023-02-28T09:25:21;101661.75;;;5.06
62611;BMP280;48683;48.084;17.272;2023-02-28T09:27:46;101667.25;;;5.27
62611;BMP280;48683;48.084;17.272;2023-02-28T09:30:12;101667.41;;;5.48
62611;BMP280;48683;48.084;17.272;2023-02-28T09:32:38;101673.34;;;5.53
62611;BMP280;48683;48.084;17.272;2023-02-28T09:35:04;101668.94;;;5.74
62611;BMP280;48683;48.084;17.272;2023-02-28T09:37:29;101652.16;;;5.57
62611;BMP280;48683;48.084;17.272;2023-02-28T09:39:56;101661.25;;;5.73
62611;BMP280;48683;48.084;17.272;2023-02-28T09:42:26;101653.25;;;5.64
62611;BMP280;48683;48.084;17.272;2023-02-28T09:44:55;101651.19;;;5.79
62611;BMP280;48683;48.084;17.272;2023-02-28T09:47:39;101654.34;;;5.89
62611;BMP280;48683;48.084;17.272;2023-02-28T09:52:41;101633.81;;;5.72
62611;BMP280;48683;48.084;17.272;2023-02-28T09:57:49;101657.75;;;6.07
62611;BMP280;48683;48.084;17.272;2023-02-28T10:00:24;101657.22;;;6.22
62611;BMP280;48683;48.084;17.272;2023-02-28T10:06:12;101647.63;;;6.21
62611;BMP280;48683;48.084;17.272;2023-02-28T10:11:32;101651.91;;;6.43
62611;BMP280;48683;48.084;17.272;2023-02-28T10:14:05;101652.00;;;6.55
62611;BMP280;48683;48.084;17.272;2023-02-28T10:16:51;101636.88;;;6.38
62611;BMP280;48683;48.084;17.272;2023-02-28T10:19:30;101631.50;;;6.17
62611;BMP280;48683;48.084;17.272;2023-02-28T10:22:03;101632.97;;;6.06
62611;BMP280;48683;48.084;17.272;2023-02-28T10:24:37;101635.41;;;6.20
62611;BMP280;48683;48.084;17.272;2023-02-28T10:27:22;101623.50;;;6.17
62611;BMP280;48683;48.084;17.272;2023-02-28T10:29:53;101641.06;;;6.48
62611;BMP280;48683;48.084;17.272;2023-02-28T10:32:39;101641.38;;;6.76
62611;BMP280;48683;48.084;17.272;2023-02-28T10:35:21;101628.25;;;6.62
62611;BMP280;48683;48.084;17.272;2023-02-28T10:37:53;101628.56;;;6.69
62611;BMP280;48683;48.084;17.272;2023-02-28T10:45:39;101625.88;;;7.10
62611;BMP280;48683;48.084;17.272;2023-02-28T10:53:27;101609.44;;;7.21
62611;BMP280;48683;48.084;17.272;2023-02-28T10:58:34;101616.88;;;7.48
62611;BMP280;48683;48.084;17.272;2023-02-28T11:03:56;101603.63;;;7.51
62611;BMP280;48683;48.084;17.272;2023-02-28T11:06:34;101601.34;;;7.62
62611;BMP280;48683;48.084;17.272;2023-02-28T11:09:13;101587.31;;;7.65
62611;BMP280;48683;48.084;17.272;2023-02-28T11:11:43;101582.72;;;7.53
62611;BMP280;48683;48.084;17.272;2023-02-28T11:16:45;101578.84;;;7.87
62611;BMP280;48683;48.084;17.272;2023-02-28T11:19:19;101566.19;;;7.39
62611;BMP280;48683;48.084;17.272;2023-02-28T11:21:53;101573.69;;;7.58
62611;BMP280;48683;48.084;17.272;2023-02-28T11:24:42;101581.63;;;7.91
62611;BMP280;48683;48.084;17.272;2023-02-28T11:29:51;101557.69;;;7.70
62611;BMP280;48683;48.084;17.272;2023-02-28T11:32:22;101561.44;;;7.57
62611;BMP280;48683;48.084;17.272;2023-02-28T11:37:27;101548.09;;;7.24
62611;BMP280;48683;48.084;17.272;2023-02-28T11:39:53;101548.28;;;7.07
62611;BMP280;48683;48.084;17.272;2023-02-28T11:42:35;101546.31;;;6.83
62611;BMP280;48683;48.084;17.272;2023-02-28T11:54:06;101538.75;;;7.18
62611;BMP280;48683;48.084;17.272;2023-02-28T11:56:44;101522.84;;;6.89
62611;BMP280;48683;48.084;17.272;2023-02-28T12:15:51;101508.69;;;6.76
62611;BMP280;48683;48.084;17.272;2023-02-28T12:18:26;101510.16;;;6.86
62611;BMP280;48683;48.084;17.272;2023-02-28T12:26:38;101494.03;;;6.82
62611;BMP280;48683;48.084;17.272;2023-02-28T12:29:16;101494.25;;;6.56
62611;BMP280;48683;48.084;17.272;2023-02-28T12:35:01;101495.59;;;6.83
62611;BMP280;48683;48.084;17.272;2023-02-28T12:40:00;101479.72;;;6.66
62611;BMP280;48683;48.084;17.272;2023-02-28T12:42:33;101484.81;;;6.59
62611;BMP280;48683;48.084;17.272;2023-02-28T12:45:06;101476.94;;;6.62
62611;BMP280;48683;48.084;17.272;2023-02-28T12:47:38;101473.03;;;6.60
62611;BMP280;48683;48.084;17.272;2023-02-28T12:58:47;101475.03;;;6.63
62611;BMP280;48683;48.084;17.272;2023-02-28T13:07:16;101468.84;;;6.71
62611;BMP280;48683;48.084;17.272;2023-02-28T13:09:58;101458.28;;;6.75
62611;BMP280;48683;48.084;17.272;2023-02-28T13:12:25;101445.69;;;6.63
62611;BMP280;48683;48.084;17.272;2023-02-28T13:17:29;101446.34;;;6.60
62611;BMP280;48683;48.084;17.272;2023-02-28T13:22:41;101454.53;;;6.55
62611;BMP280;48683;48.084;17.272;2023-02-28T13:27:52;101441.69;;;6.57
62611;BMP280;48683;48.084;17.272;2023-02-28T13:33:31;101435.56;;;6.36
62611;BMP280;48683;48.084;17.272;2023-02-28T13:39:15;101437.19;;;6.28
62611;BMP280;48683;48.084;17.272;2023-02-28T13:51:49;101421.06;;;6.25
62611;BMP280;48683;48.084;17.272;2023-02-28T13:57:45;101432.06;;;6.23
62611;BMP280;48683;48.084;17.272;2023-02-28T14:03:26;101439.88;;;6.28
62611;BMP280;48683;48.084;17.272;2023-02-28T14:06:29;101437.91;;;6.16
62611;BMP280;48683;48.084;17.272;2023-02-28T14:09:00;101429.50;;;6.27
62611;BMP280;48683;48.084;17.272;2023-02-28T14:11:35;101433.44;;;6.29
62611;BMP280;48683;48.084;17.272;2023-02-28T14:14:02;101428.28;;;6.24
62611;BMP280;48683;48.084;17.272;2023-02-28T14:16:37;101426.09;;;6.26
62611;BMP280;48683;48.084;17.272;2023-02-28T14:19:25;101427.84;;;6.22
62611;BMP280;48683;48.084;17.272;2023-02-28T14:27:13;101418.41;;;6.04
62611;BMP280;48683;48.084;17.272;2023-02-28T14:32:26;101415.94;;;5.99
62611;BMP280;48683;48.084;17.272;2023-02-28T14:35:09;101411.19;;;6.04
62611;BMP280;48683;48.084;17.272;2023-02-28T14:37:39;101416.66;;;6.08
62611;BMP280;48683;48.084;17.272;2023-02-28T14:40:13;101417.81;;;5.98
62611;BMP280;48683;48.084;17.272;2023-02-28T14:42:39;101414.13;;;5.82
62611;BMP280;48683;48.084;17.272;2023-02-28T14:45:21;101400.22;;;5.77
62611;BMP280;48683;48.084;17.272;2023-02-28T14:47:47;101417.13;;;5.81
62611;BMP280;48683;48.084;17.272;2023-02-28T14:50:20;101417.47;;;5.79
62611;BMP280;48683;48.084;17.272;2023-02-28T14:52:45;101410.25;;;5.80
62611;BMP280;48683;48.084;17.272;2023-02-28T14:55:17;101410.69;;;5.82
62611;BMP280;48683;48.084;17.272;2023-02-28T14:58:00;101414.13;;;5.82
62611;BMP280;48683;48.084;17.272;2023-02-28T15:00:33;101404.84;;;5.67
62611;BMP280;48683;48.084;17.272;2023-02-28T15:03:00;101414.00;;;5.79
62611;BMP280;48683;48.084;17.272;2023-02-28T15:05:31;101415.09;;;5.78
62611;BMP280;48683;48.084;17.272;2023-02-28T15:10:32;101408.28;;;5.68
62611;BMP280;48683;48.084;17.272;2023-02-28T15:13:00;101410.59;;;5.69
62611;BMP280;48683;48.084;17.272;2023-02-28T15:15:40;101408.91;;;5.65
62611;BMP280;48683;48.084;17.272;2023-02-28T15:18:07;101420.03;;;5.67
62611;BMP280;48683;48.084;17.272;2023-02-28T15:20:38;101420.69;;;5.64
62611;BMP280;48683;48.084;17.272;2023-02-28T15:23:04;101416.44;;;5.63
62611;BMP280;48683;48.084;17.272;2023-02-28T15:25:29;101406.34;;;5.48
62611;BMP280;48683;48.084;17.272;2023-02-28T15:27:56;101416.13;;;5.35
62611;BMP280;48683;48.084;17.272;2023-02-28T15:30:30;101408.31;;;5.30
62611;BMP280;48683;48.084;17.272;2023-02-28T15:33:18;101416.56;;;5.37
62611;BMP280;48683;48.084;17.272;2023-02-28T15:35:44;101409.13;;;5.22
62611;BMP280;48683;48.084;17.272;2023-02-28T15:38:22;101408.97;;;5.18
62611;BMP280;48683;48.084;17.272;2023-02-28T15:40:54;101409.13;;;5.22
62611;BMP280;48683;48.084;17.272;2023-02-28T15:48:37;101411.84;;;5.05
62611;BMP280;48683;48.084;17.272;2023-02-28T15:51:08;101406.69;;;5.00
62611;BMP280;48683;48.084;17.272;2023-02-28T15:54:01;101400.13;;;4.97
62611;BMP280;48683;48.084;17.272;2023-02-28T15:56:32;101395.94;;;4.88
62611;BMP280;48683;48.084;17.272;2023-02-28T15:59:04;101394.22;;;4.83
62611;BMP280;48683;48.084;17.272;2023-02-28T16:01:37;101397.84;;;4.78
62611;BMP280;48683;48.084;17.272;2023-02-28T16:04:21;101399.88;;;4.73
62611;BMP280;48683;48.084;17.272;2023-02-28T16:09:19;101409.59;;;4.77
62611;BMP280;48683;48.084;17.272;2023-02-28T16:11:49;101399.88;;;4.73
62611;BMP280;48683;48.084;17.272;2023-02-28T16:14:18;101403.78;;;4.75
62611;BMP280;48683;48.084;17.272;2023-02-28T16:16:47;101400.84;;;4.68
62611;BMP280;48683;48.084;17.272;2023-02-28T16:19:14;101398.97;;;4.60
62611;BMP280;48683;48.084;17.272;2023-02-28T16:21:39;101400.69;;;4.65
62611;BMP280;48683;48.084;17.272;2023-02-28T16:24:05;101407.44;;;4.62
62611;BMP280;48683;48.084;17.272;2023-02-28T16:26:31;101409.44;;;4.65
62611;BMP280;48683;48.084;17.272;2023-02-28T16:28:59;101405.38;;;4.59
62611;BMP280;48683;48.084;17.272;2023-02-28T16:31:25;101406.81;;;4.57
62611;BMP280;48683;48.084;17.272;2023-02-28T16:33:51;101394.94;;;4.54
62611;BMP280;48683;48.084;17.272;2023-02-28T16:36:25;101396.00;;;4.53
62611;BMP280;48683;48.084;17.272;2023-02-28T16:38:51;101396.34;;;4.43
62611;BMP280;48683;48.084;17.272;2023-02-28T16:41:18;101395.22;;;4.44